Time;durP1;ratioP1;P1;durP2;ratioP2;P2;SDS_P1;SDS_P2;PMS_P1;PMS_P2;Temp;Humidity;BMP_temperature;BMP_pressure;BME280_temperature;BME280_humidity;BME280_pressure;Samples;Min_cycle;Max_cycle;Signal;HPM_P1;HPM_P2
2022/05/29 00:01:53;;;;;;;5.10;2.20;;;;;;;;;;5011293;28;20573;-75
2022/05/29 00:04:21;;;;;;;4.27;2.10;;;;;;;;;;5011761;28;20455;-76
2022/05/29 00:06:50;;;;;;;7.27;2.90;;;;;;;;;;4995658;28;20466;-74
2022/05/29 00:09:19;;;;;;;6.40;2.53;;;;;;;;;;5013468;28;20446;-76
2022/05/29 00:11:46;;;;;;;6.70;2.40;;;;;;;;;;5016988;28;20435;-74
2022/05/29 00:14:15;;;;;;;3.60;2.20;;;;;;;;;;5015793;28;20441;-75
2022/05/29 00:16:42;;;;;;;6.93;2.83;;;;;;;;;;5011013;28;20467;-76
2022/05/29 00:19:09;;;;;;;3.60;2.20;;;;;;;;;;5010594;28;20439;-76
2022/05/29 00:21:38;;;;;;;6.63;2.20;;;;;;;;;;5010945;28;20493;-76
2022/05/29 00:24:05;;;;;;;4.67;2.27;;;;;;;;;;5011419;28;20447;-76
2022/05/29 00:26:33;;;;;;;4.67;2.10;;;;;;;;;;5011155;28;20485;-75
2022/05/29 00:29:00;;;;;;;3.97;1.90;;;;;;;;;;5012755;28;20454;-77
2022/05/29 00:31:28;;;;;;;4.30;2.50;;;;;;;;;;5012369;28;21066;-76
2022/05/29 00:33:55;;;;;;;5.40;2.17;;;;;;;;;;5017151;28;20431;-75
2022/05/29 00:36:23;;;;;;;4.10;2.60;;;;;;;;;;5018598;28;20543;-74
2022/05/29 00:38:51;;;;;;;4.73;2.07;;;;;;;;;;5029718;28;20556;-75
2022/05/29 00:41:21;;;;;;;5.10;2.47;;;;;;;;;;5029884;28;20908;-74
2022/05/29 00:44:05;;;;;;;7.10;2.40;;;;;;;;;;5030573;28;20802;-75
2022/05/29 00:46:33;;;;;;;7.13;2.43;;;;;;;;;;5013063;28;20884;-76
2022/05/29 00:49:01;;;;;;;5.73;1.97;;;;;;;;;;5022225;28;20784;-76
2022/05/29 00:51:28;;;;;;;3.23;2.10;;;;;;;;;;5012051;28;20443;-75
2022/05/29 00:53:55;;;;;;;5.10;2.67;;;;;;;;;;5012528;28;20458;-75
2022/05/29 00:56:23;;;;;;;3.90;2.20;;;;;;;;;;5016036;28;21006;-77
2022/05/29 00:58:50;;;;;;;4.23;2.40;;;;;;;;;;5017705;28;20452;-76
2022/05/29 01:01:17;;;;;;;5.80;2.43;;;;;;;;;;5023600;28;20976;-76
2022/05/29 01:03:46;;;;;;;4.70;2.23;;;;;;;;;;5009610;28;20443;-74
2022/05/29 01:06:13;;;;;;;6.97;2.70;;;;;;;;;;5010229;28;20867;-76
2022/05/29 01:08:40;;;;;;;7.80;2.83;;;;;;;;;;5010446;28;20873;-76
2022/05/29 01:11:13;;;;;;;6.73;2.23;;;;;;;;;;5009992;28;20466;-77
2022/05/29 01:13:46;;;;;;;4.90;2.50;;;;;;;;;;4994373;28;20447;-76
2022/05/29 01:16:18;;;;;;;8.47;2.50;;;;;;;;;;5011910;28;20463;-76
2022/05/29 01:18:53;;;;;;;6.07;2.30;;;;;;;;;;5015749;28;20435;-75
2022/05/29 01:21:27;;;;;;;7.93;3.03;;;;;;;;;;5014906;28;20474;-76
2022/05/29 01:24:00;;;;;;;5.13;2.80;;;;;;;;;;5009579;28;20446;-75
2022/05/29 01:26:42;;;;;;;4.10;2.40;;;;;;;;;;5009539;28;20455;-75
2022/05/29 01:29:13;;;;;;;7.13;2.43;;;;;;;;;;5009112;28;20431;-74
2022/05/29 01:31:43;;;;;;;5.43;2.70;;;;;;;;;;5009913;28;20955;-76
2022/05/29 01:34:21;;;;;;;4.60;2.33;;;;;;;;;;5009881;28;20454;-76
2022/05/29 01:36:52;;;;;;;9.33;2.40;;;;;;;;;;5011255;28;20458;-76
2022/05/29 01:39:22;;;;;;;6.13;2.20;;;;;;;;;;5011621;28;20474;-75
2022/05/29 01:41:54;;;;;;;6.00;2.47;;;;;;;;;;5015317;28;20481;-77
2022/05/29 01:44:25;;;;;;;6.93;2.30;;;;;;;;;;5014172;28;20435;-75
2022/05/29 01:46:55;;;;;;;2.60;2.10;;;;;;;;;;5009772;28;20461;-76
2022/05/29 01:49:25;;;;;;;4.80;2.93;;;;;;;;;;5009220;28;20447;-75
2022/05/29 01:51:56;;;;;;;2.83;1.83;;;;;;;;;;5009468;28;20431;-76
2022/05/29 01:54:25;;;;;;;2.17;1.87;;;;;;;;;;4992730;28;20780;-75
2022/05/29 01:56:55;;;;;;;7.33;2.53;;;;;;;;;;5009677;28;20560;-76
2022/05/29 01:59:26;;;;;;;5.10;2.00;;;;;;;;;;4993843;28;20435;-75
2022/05/29 02:01:55;;;;;;;1.87;1.67;;;;;;;;;;5011461;28;20478;-75
2022/05/29 02:04:25;;;;;;;9.40;2.30;;;;;;;;;;5002142;28;20787;-76
2022/05/29 02:09:35;;;;;;;7.47;2.60;;;;;;;;;;5012250;28;20439;-74
2022/05/29 02:12:03;;;;;;;11.03;3.03;;;;;;;;;;4995371;28;20445;-74
2022/05/29 02:14:36;;;;;;;5.17;2.50;;;;;;;;;;4996290;28;20450;-75
2022/05/29 02:17:05;;;;;;;6.10;2.40;;;;;;;;;;5013312;28;20451;-75
2022/05/29 02:19:34;;;;;;;3.70;2.10;;;;;;;;;;5013531;28;21523;-76
2022/05/29 02:22:03;;;;;;;4.00;2.27;;;;;;;;;;5000733;28;20482;-76
2022/05/29 02:24:33;;;;;;;3.57;2.27;;;;;;;;;;5000836;28;20458;-77
2022/05/29 02:27:06;;;;;;;3.03;2.23;;;;;;;;;;5012822;28;21013;-76
2022/05/29 02:29:35;;;;;;;5.57;2.00;;;;;;;;;;4995568;28;20441;-75
2022/05/29 02:32:05;;;;;;;3.80;2.17;;;;;;;;;;4995738;28;20447;-75
2022/05/29 02:34:34;;;;;;;3.90;2.20;;;;;;;;;;5013187;28;20442;-76
2022/05/29 02:37:05;;;;;;;4.40;1.90;;;;;;;;;;5012864;28;21067;-76
2022/05/29 02:39:39;;;;;;;5.60;2.63;;;;;;;;;;5014856;28;20446;-76
2022/05/29 02:42:12;;;;;;;4.87;2.47;;;;;;;;;;5014700;28;20727;-76
2022/05/29 02:44:43;;;;;;;4.27;2.20;;;;;;;;;;5018839;28;20652;-75
2022/05/29 02:47:16;;;;;;;5.23;2.50;;;;;;;;;;4999658;28;20549;-77
2022/05/29 02:49:45;;;;;;;6.57;2.57;;;;;;;;;;5012864;28;20435;-76
2022/05/29 02:52:14;;;;;;;4.93;2.43;;;;;;;;;;4995079;28;20538;-79
2022/05/29 02:54:41;;;;;;;5.40;2.30;;;;;;;;;;4995344;28;20501;-76
2022/05/29 02:57:08;;;;;;;5.60;2.60;;;;;;;;;;5012857;28;20458;-76
2022/05/29 02:59:38;;;;;;;4.00;2.13;;;;;;;;;;5012580;28;20450;-76
2022/05/29 03:02:12;;;;;;;4.90;2.33;;;;;;;;;;5014105;28;20512;-75
2022/05/29 03:04:45;;;;;;;6.97;2.60;;;;;;;;;;5014185;28;20932;-77
2022/05/29 03:07:17;;;;;;;4.27;2.40;;;;;;;;;;5018470;28;20884;-76
2022/05/29 03:09:46;;;;;;;12.27;2.70;;;;;;;;;;5017230;28;20947;-77
2022/05/29 03:12:24;;;;;;;5.80;2.23;;;;;;;;;;5011977;28;20439;-76
2022/05/29 03:14:54;;;;;;;6.00;2.50;;;;;;;;;;5011773;28;20445;-76
2022/05/29 03:17:28;;;;;;;4.60;2.37;;;;;;;;;;5011560;28;20459;-75
2022/05/29 03:20:01;;;;;;;7.90;2.63;;;;;;;;;;5012010;28;20485;-76
2022/05/29 03:22:33;;;;;;;6.17;2.30;;;;;;;;;;5011940;28;20478;-76
2022/05/29 03:25:02;;;;;;;4.30;2.50;;;;;;;;;;5017614;28;21119;-76
2022/05/29 03:27:31;;;;;;;8.00;2.37;;;;;;;;;;5018070;28;20450;-76
2022/05/29 03:30:02;;;;;;;4.83;2.30;;;;;;;;;;5011227;28;20822;-77
2022/05/29 03:32:31;;;;;;;5.47;2.70;;;;;;;;;;5011490;28;20441;-77
2022/05/29 03:34:58;;;;;;;7.13;2.63;;;;;;;;;;5012066;28;20446;-76
2022/05/29 03:37:26;;;;;;;7.47;2.57;;;;;;;;;;5011855;28;20996;-75
2022/05/29 03:39:53;;;;;;;3.10;2.10;;;;;;;;;;5011680;28;21090;-75
2022/05/29 03:42:20;;;;;;;11.10;2.33;;;;;;;;;;5013489;28;20486;-77
2022/05/29 03:44:47;;;;;;;4.93;2.57;;;;;;;;;;5013408;28;20932;-75
2022/05/29 03:47:14;;;;;;;2.93;2.33;;;;;;;;;;5016603;28;20478;-76
2022/05/29 03:49:43;;;;;;;3.80;1.83;;;;;;;;;;5017971;28;20426;-75
2022/05/29 03:52:10;;;;;;;6.80;2.60;;;;;;;;;;5011215;28;20435;-76
2022/05/29 03:54:37;;;;;;;4.40;2.47;;;;;;;;;;5011340;28;20814;-76
2022/05/29 03:57:04;;;;;;;6.33;2.27;;;;;;;;;;5011349;28;20558;-75
2022/05/29 03:59:31;;;;;;;6.67;3.27;;;;;;;;;;5011701;28;20776;-75
2022/05/29 04:01:58;;;;;;;4.50;2.60;;;;;;;;;;5010449;28;20443;-76
2022/05/29 04:04:26;;;;;;;3.93;2.47;;;;;;;;;;5012957;28;20449;-77
2022/05/29 04:06:54;;;;;;;4.70;2.37;;;;;;;;;;5012929;28;20739;-75
2022/05/29 04:12:05;;;;;;;5.67;2.90;;;;;;;;;;5016329;28;20435;-75
2022/05/29 04:14:33;;;;;;;5.67;2.67;;;;;;;;;;5011851;28;20438;-74
2022/05/29 04:17:00;;;;;;;6.13;3.10;;;;;;;;;;5010043;28;20838;-74
2022/05/29 04:19:27;;;;;;;2.93;2.50;;;;;;;;;;5011093;28;20443;-73
2022/05/29 04:21:56;;;;;;;3.77;2.57;;;;;;;;;;5011743;28;20479;-76
2022/05/29 04:24:23;;;;;;;5.27;2.70;;;;;;;;;;5010197;28;20487;-75
2022/05/29 04:26:50;;;;;;;8.70;3.00;;;;;;;;;;4992103;28;20460;-73
2022/05/29 04:29:18;;;;;;;3.73;2.40;;;;;;;;;;4992749;28;20432;-75
2022/05/29 04:34:29;;;;;;;5.93;3.07;;;;;;;;;;5001527;28;20506;-74
2022/05/29 04:36:57;;;;;;;5.17;2.60;;;;;;;;;;4994367;28;20982;-74
2022/05/29 04:39:26;;;;;;;4.60;2.80;;;;;;;;;;5010367;28;20439;-73
2022/05/29 04:41:53;;;;;;;7.23;3.47;;;;;;;;;;5010453;28;20444;-77
2022/05/29 04:44:20;;;;;;;4.30;2.73;;;;;;;;;;5010787;28;20490;-76
2022/05/29 04:46:47;;;;;;;5.03;3.47;;;;;;;;;;5009818;28;20463;-74
2022/05/29 04:49:15;;;;;;;4.53;2.73;;;;;;;;;;5011307;28;20467;-74
2022/05/29 04:51:42;;;;;;;8.87;2.73;;;;;;;;;;5012275;28;20447;-75
2022/05/29 04:54:11;;;;;;;5.53;3.03;;;;;;;;;;5013945;28;20451;-75
2022/05/29 04:56:38;;;;;;;5.87;3.40;;;;;;;;;;5016054;28;20458;-72
2022/05/29 04:59:05;;;;;;;6.07;2.87;;;;;;;;;;5023206;28;20442;-73
2022/05/29 05:01:32;;;;;;;4.70;2.70;;;;;;;;;;5029830;28;20434;-74
2022/05/29 05:03:59;;;;;;;7.07;3.33;;;;;;;;;;5029763;28;20812;-74
2022/05/29 05:06:28;;;;;;;4.50;2.33;;;;;;;;;;5029428;28;20820;-74
2022/05/29 05:08:55;;;;;;;9.53;3.20;;;;;;;;;;5030065;28;20442;-75
2022/05/29 05:11:23;;;;;;;4.50;2.90;;;;;;;;;;5016870;28;20451;-76
2022/05/29 05:13:51;;;;;;;4.40;3.23;;;;;;;;;;5012090;28;20447;-74
2022/05/29 05:16:18;;;;;;;5.40;3.03;;;;;;;;;;5012256;28;20576;-76
2022/05/29 05:18:45;;;;;;;6.43;2.90;;;;;;;;;;5012969;28;20458;-75
2022/05/29 05:21:12;;;;;;;6.83;3.40;;;;;;;;;;5019869;28;20473;-75
2022/05/29 05:23:40;;;;;;;5.43;2.90;;;;;;;;;;5018983;28;20486;-74
2022/05/29 05:26:10;;;;;;;6.73;3.43;;;;;;;;;;5009054;28;20525;-76
2022/05/29 05:28:39;;;;;;;6.73;3.03;;;;;;;;;;5009599;28;20442;-76
2022/05/29 05:31:06;;;;;;;7.37;2.20;;;;;;;;;;5009552;28;20534;-76
2022/05/29 05:33:33;;;;;;;3.73;2.47;;;;;;;;;;5009543;28;20466;-75
2022/05/29 05:36:00;;;;;;;6.57;3.53;;;;;;;;;;5013832;28;20465;-75
2022/05/29 05:38:27;;;;;;;4.60;2.90;;;;;;;;;;5014687;28;20434;-75
2022/05/29 05:40:55;;;;;;;3.83;2.90;;;;;;;;;;5026172;28;20957;-77
2022/05/29 05:43:22;;;;;;;5.80;2.80;;;;;;;;;;5028949;28;20489;-75
2022/05/29 05:45:50;;;;;;;7.70;3.17;;;;;;;;;;5024572;28;20972;-75
2022/05/29 05:48:17;;;;;;;4.23;2.27;;;;;;;;;;5010446;28;20466;-75
2022/05/29 05:50:45;;;;;;;6.40;2.57;;;;;;;;;;5009114;28;20450;-76
2022/05/29 05:53:13;;;;;;;4.13;2.23;;;;;;;;;;5010334;28;20451;-75
2022/05/29 05:55:40;;;;;;;6.70;2.53;;;;;;;;;;4994001;28;20471;-76
2022/05/29 05:58:07;;;;;;;4.37;2.90;;;;;;;;;;5012989;28;20435;-75
2022/05/29 06:00:34;;;;;;;4.90;3.03;;;;;;;;;;5015362;28;20417;-74
2022/05/29 06:03:03;;;;;;;4.37;2.50;;;;;;;;;;5022697;28;20467;-75
2022/05/29 06:05:30;;;;;;;5.00;2.60;;;;;;;;;;5028849;28;20422;-74
2022/05/29 06:07:58;;;;;;;10.00;2.83;;;;;;;;;;5029072;28;20462;-76
2022/05/29 06:10:25;;;;;;;8.00;3.13;;;;;;;;;;5029347;28;20931;-76
2022/05/29 06:12:52;;;;;;;5.90;2.47;;;;;;;;;;4997532;28;20991;-74
2022/05/29 06:15:19;;;;;;;10.00;3.00;;;;;;;;;;5010133;28;20437;-74
2022/05/29 06:17:47;;;;;;;4.50;2.77;;;;;;;;;;5010154;28;20484;-76
2022/05/29 06:20:15;;;;;;;4.90;3.00;;;;;;;;;;5011249;28;20970;-75
2022/05/29 06:22:43;;;;;;;5.00;2.73;;;;;;;;;;5012350;28;20449;-75
2022/05/29 06:25:11;;;;;;;6.90;2.60;;;;;;;;;;5013614;28;20988;-76
2022/05/29 06:27:38;;;;;;;6.63;2.90;;;;;;;;;;5008967;28;20436;-76
2022/05/29 06:30:07;;;;;;;7.47;2.50;;;;;;;;;;5007150;28;20428;-74
2022/05/29 06:32:34;;;;;;;4.70;2.30;;;;;;;;;;4991939;28;20460;-76
2022/05/29 06:35:02;;;;;;;3.30;1.83;;;;;;;;;;5008188;28;20552;-75
2022/05/29 06:37:31;;;;;;;5.33;2.57;;;;;;;;;;5007788;28;20533;-76
2022/05/29 06:39:58;;;;;;;5.20;2.43;;;;;;;;;;5009463;28;20534;-74
2022/05/29 06:42:26;;;;;;;3.57;2.17;;;;;;;;;;5015251;28;20454;-75
2022/05/29 06:44:53;;;;;;;4.10;2.47;;;;;;;;;;4994893;28;20520;-76
2022/05/29 06:47:20;;;;;;;4.50;2.47;;;;;;;;;;5006173;28;20591;-75
2022/05/29 06:49:48;;;;;;;4.10;2.23;;;;;;;;;;5011387;28;20450;-75
2022/05/29 06:52:15;;;;;;;4.70;2.17;;;;;;;;;;4994148;28;20797;-76
2022/05/29 06:54:44;;;;;;;6.10;2.67;;;;;;;;;;5012403;28;20443;-74
2022/05/29 06:57:13;;;;;;;3.33;2.27;;;;;;;;;;4993533;28;20490;-75
2022/05/29 07:07:45;;;;;;;3.60;2.10;;;;;;;;;;5020344;28;20454;-75
2022/05/29 07:10:13;;;;;;;3.77;2.00;;;;;;;;;;5032125;28;20446;-75
2022/05/29 07:12:40;;;;;;;3.33;2.20;;;;;;;;;;5031824;28;20453;-76
2022/05/29 07:15:08;;;;;;;4.17;2.17;;;;;;;;;;5032185;28;20468;-75
2022/05/29 07:17:35;;;;;;;3.20;1.87;;;;;;;;;;5014714;28;20461;-75
2022/05/29 07:20:02;;;;;;;3.17;2.03;;;;;;;;;;4990056;28;20468;-75
2022/05/29 07:22:31;;;;;;;5.40;2.10;;;;;;;;;;5014767;28;22027;-76
2022/05/29 07:24:58;;;;;;;4.80;2.50;;;;;;;;;;5001191;28;20478;-77
2022/05/29 07:27:27;;;;;;;4.47;2.23;;;;;;;;;;5030972;28;20458;-78
2022/05/29 07:29:54;;;;;;;3.40;2.30;;;;;;;;;;5031205;28;20445;-78
2022/05/29 07:32:23;;;;;;;6.40;2.50;;;;;;;;;;5032036;28;20445;-76
2022/05/29 07:34:51;;;;;;;5.50;2.40;;;;;;;;;;5031788;28;21124;-76
2022/05/29 07:37:18;;;;;;;3.93;2.20;;;;;;;;;;5016692;28;20469;-77
2022/05/29 07:39:47;;;;;;;4.27;2.60;;;;;;;;;;5013545;28;20451;-75
2022/05/29 07:44:56;;;;;;;5.80;2.27;;;;;;;;;;5001003;28;20480;-77
2022/05/29 07:47:27;;;;;;;10.60;2.70;;;;;;;;;;4999336;28;20457;-76
2022/05/29 07:49:54;;;;;;;5.40;2.27;;;;;;;;;;5004366;28;20547;-77
2022/05/29 07:52:22;;;;;;;3.63;3.00;;;;;;;;;;5009004;28;20418;-75
2022/05/29 07:54:49;;;;;;;4.80;2.70;;;;;;;;;;5011160;28;20783;-77
2022/05/29 07:57:16;;;;;;;3.73;2.40;;;;;;;;;;5007393;28;21059;-76
2022/05/29 07:59:43;;;;;;;5.00;2.80;;;;;;;;;;4988977;28;20441;-80
2022/05/29 08:02:12;;;;;;;3.60;2.93;;;;;;;;;;5013433;28;20830;-80
2022/05/29 08:04:40;;;;;;;5.20;3.40;;;;;;;;;;5018025;28;20459;-81
2022/05/29 08:07:07;;;;;;;4.57;3.60;;;;;;;;;;5010614;28;20470;-74
2022/05/29 08:09:34;;;;;;;5.10;3.20;;;;;;;;;;5004994;28;20966;-78
2022/05/29 08:12:02;;;;;;;4.70;3.87;;;;;;;;;;5011077;28;20482;-79
2022/05/29 08:14:29;;;;;;;5.50;3.83;;;;;;;;;;5011179;28;20435;-78
2022/05/29 08:16:56;;;;;;;3.67;3.03;;;;;;;;;;5010405;28;20474;-76
2022/05/29 08:19:25;;;;;;;4.70;2.60;;;;;;;;;;5012683;28;20451;-79
2022/05/29 08:21:52;;;;;;;2.90;2.60;;;;;;;;;;5010497;28;20483;-77
2022/05/29 08:32:22;;;;;;;4.43;2.30;;;;;;;;;;5011250;28;20865;-77
2022/05/29 08:34:51;;;;;;;3.77;2.10;;;;;;;;;;5008420;28;20960;-78
2022/05/29 08:37:19;;;;;;;3.10;2.20;;;;;;;;;;5008796;28;20483;-76
2022/05/29 08:39:46;;;;;;;2.50;1.90;;;;;;;;;;5010882;28;20455;-77
2022/05/29 08:42:14;;;;;;;2.43;1.80;;;;;;;;;;5010591;28;20462;-76
2022/05/29 08:44:45;;;;;;;2.30;1.67;;;;;;;;;;5012287;28;20497;-78
2022/05/29 08:47:12;;;;;;;2.30;1.83;;;;;;;;;;5011683;28;21299;-78
2022/05/29 08:49:42;;;;;;;2.33;1.80;;;;;;;;;;4998378;28;20441;-78
2022/05/29 08:52:15;;;;;;;2.17;1.97;;;;;;;;;;5010552;28;20418;-79
2022/05/29 08:54:47;;;;;;;5.17;2.10;;;;;;;;;;5010089;28;20538;-77
2022/05/29 08:57:18;;;;;;;2.20;2.00;;;;;;;;;;5010269;28;20463;-76
2022/05/29 08:59:49;;;;;;;2.73;2.00;;;;;;;;;;5010788;28;20443;-76
2022/05/29 09:02:23;;;;;;;2.80;1.80;;;;;;;;;;5009673;28;20462;-78
2022/05/29 09:04:53;;;;;;;2.70;2.17;;;;;;;;;;5012213;28;20501;-75
2022/05/29 09:07:22;;;;;;;4.67;2.13;;;;;;;;;;4994595;28;20541;-77
2022/05/29 09:09:51;;;;;;;2.03;1.67;;;;;;;;;;5014995;28;20418;-76
2022/05/29 09:12:21;;;;;;;5.90;2.00;;;;;;;;;;5015946;28;20438;-78
2022/05/29 09:14:50;;;;;;;2.20;1.77;;;;;;;;;;5010854;28;20435;-78
2022/05/29 09:17:20;;;;;;;3.00;1.90;;;;;;;;;;5009077;28;20469;-78
2022/05/29 09:19:50;;;;;;;2.27;1.80;;;;;;;;;;5009919;28;20439;-77
2022/05/29 09:22:20;;;;;;;3.00;1.90;;;;;;;;;;5010560;28;20439;-77
2022/05/29 09:24:54;;;;;;;3.13;2.20;;;;;;;;;;4991862;28;20518;-76
2022/05/29 09:27:22;;;;;;;3.50;1.80;;;;;;;;;;5011274;28;20467;-76
2022/05/29 09:29:49;;;;;;;3.20;1.90;;;;;;;;;;5011457;28;20447;-77
2022/05/29 09:32:18;;;;;;;2.10;1.80;;;;;;;;;;5013306;28;20442;-75
2022/05/29 09:34:53;;;;;;;2.10;1.90;;;;;;;;;;5016356;28;20431;-76
2022/05/29 09:37:25;;;;;;;3.37;2.50;;;;;;;;;;5026318;28;20469;-77
2022/05/29 09:39:56;;;;;;;4.23;2.23;;;;;;;;;;5028624;28;20442;-76
2022/05/29 09:42:26;;;;;;;2.80;2.17;;;;;;;;;;5029390;28;20442;-78
2022/05/29 09:45:05;;;;;;;3.80;2.60;;;;;;;;;;5012280;28;20489;-77
2022/05/29 09:50:14;;;;;;;3.43;2.07;;;;;;;;;;4981647;28;20504;-76
2022/05/29 09:52:44;;;;;;;3.53;2.20;;;;;;;;;;5011215;28;20446;-75
2022/05/29 09:55:22;;;;;;;5.97;2.13;;;;;;;;;;5014715;28;20441;-78
2022/05/29 09:57:52;;;;;;;3.03;1.93;;;;;;;;;;5015305;28;20537;-76
2022/05/29 10:00:26;;;;;;;5.90;2.80;;;;;;;;;;4992093;28;20490;-75
2022/05/29 10:02:53;;;;;;;6.80;2.30;;;;;;;;;;5008975;28;20438;-78
2022/05/29 10:05:24;;;;;;;3.47;2.50;;;;;;;;;;5009714;28;20860;-77
2022/05/29 10:07:51;;;;;;;2.00;1.80;;;;;;;;;;5009821;28;21002;-75
2022/05/29 10:10:31;;;;;;;3.80;2.20;;;;;;;;;;5009167;28;20475;-77
2022/05/29 10:12:59;;;;;;;3.90;2.70;;;;;;;;;;5011133;28;20446;-76
2022/05/29 10:15:35;;;;;;;4.50;2.90;;;;;;;;;;5011042;28;20443;-77
2022/05/29 10:18:05;;;;;;;4.30;3.60;;;;;;;;;;5014655;28;20454;-76
2022/05/29 10:20:33;;;;;;;9.23;3.47;;;;;;;;;;4998437;28;20494;-75
2022/05/29 10:23:02;;;;;;;6.53;3.63;;;;;;;;;;5011222;28;20446;-76
2022/05/29 10:25:33;;;;;;;4.37;3.20;;;;;;;;;;5014949;28;20482;-77
2022/05/29 10:28:03;;;;;;;5.30;3.23;;;;;;;;;;5032944;28;20544;-77
2022/05/29 10:30:32;;;;;;;5.67;2.90;;;;;;;;;;5033201;28;20442;-76
2022/05/29 10:33:02;;;;;;;6.93;2.30;;;;;;;;;;5010016;28;20462;-75
2022/05/29 10:35:30;;;;;;;4.50;1.77;;;;;;;;;;5014959;28;20943;-76
2022/05/29 10:37:58;;;;;;;3.10;1.97;;;;;;;;;;5014565;28;20470;-75
2022/05/29 10:40:26;;;;;;;2.33;1.80;;;;;;;;;;5000854;28;20451;-74
2022/05/29 10:42:56;;;;;;;2.73;1.70;;;;;;;;;;5019253;28;20456;-75
2022/05/29 10:45:25;;;;;;;6.13;2.20;;;;;;;;;;5031105;28;20508;-75
2022/05/29 10:47:58;;;;;;;2.73;1.97;;;;;;;;;;5013696;28;20462;-76
2022/05/29 10:50:29;;;;;;;3.13;1.90;;;;;;;;;;4995330;28;21222;-77
2022/05/29 10:53:02;;;;;;;2.53;1.80;;;;;;;;;;5012750;28;20439;-76
2022/05/29 10:55:38;;;;;;;7.73;2.60;;;;;;;;;;5012205;28;20924;-77
2022/05/29 10:58:24;;;;;;;3.13;2.37;;;;;;;;;;5014590;28;20443;-77
2022/05/29 11:00:56;;;;;;;3.23;1.83;;;;;;;;;;5014923;28;20439;-76
2022/05/29 11:03:36;;;;;;;3.40;1.60;;;;;;;;;;5018088;28;20930;-76
2022/05/29 11:06:15;;;;;;;3.53;1.77;;;;;;;;;;5020189;28;20494;-78
2022/05/29 11:08:49;;;;;;;2.50;1.70;;;;;;;;;;5031397;28;20484;-77
2022/05/29 11:11:21;;;;;;;3.10;1.70;;;;;;;;;;5031775;28;20818;-75
2022/05/29 11:14:00;;;;;;;1.60;1.40;;;;;;;;;;5031936;28;20441;-76
2022/05/29 11:16:37;;;;;;;3.80;1.77;;;;;;;;;;5023074;28;20452;-76
2022/05/29 11:19:11;;;;;;;4.87;1.77;;;;;;;;;;5012718;28;20448;-74
2022/05/29 11:21:44;;;;;;;2.20;1.80;;;;;;;;;;5013481;28;20472;-77
2022/05/29 11:24:17;;;;;;;3.50;1.70;;;;;;;;;;5014269;28;20960;-77
2022/05/29 11:26:50;;;;;;;3.67;1.43;;;;;;;;;;5018100;28;20432;-74
2022/05/29 11:29:34;;;;;;;2.60;1.70;;;;;;;;;;5023029;28;20504;-78
2022/05/29 11:32:06;;;;;;;4.40;1.90;;;;;;;;;;5031656;28;20478;-77
2022/05/29 11:34:35;;;;;;;3.63;2.33;;;;;;;;;;5031095;28;20536;-77
2022/05/29 11:37:10;;;;;;;2.27;1.73;;;;;;;;;;5031828;28;20445;-77
2022/05/29 11:39:40;;;;;;;3.77;1.77;;;;;;;;;;5031907;28;20933;-75
2022/05/29 11:42:11;;;;;;;3.50;2.03;;;;;;;;;;5017722;28;20425;-76
2022/05/29 11:44:43;;;;;;;4.50;2.20;;;;;;;;;;5013678;28;20821;-78
2022/05/29 11:52:44;;;;;;;5.83;2.70;;;;;;;;;;5025152;28;20478;-76
2022/05/29 11:55:13;;;;;;;3.13;1.70;;;;;;;;;;5030965;28;20455;-77
2022/05/29 11:57:43;;;;;;;3.40;1.27;;;;;;;;;;5031421;28;20459;-77
2022/05/29 12:00:19;;;;;;;4.63;2.00;;;;;;;;;;5031516;28;20445;-76
2022/05/29 12:02:50;;;;;;;1.40;1.30;;;;;;;;;;5031042;28;20438;-75
2022/05/29 12:05:25;;;;;;;5.70;1.70;;;;;;;;;;5013101;28;20862;-76
2022/05/29 12:07:56;;;;;;;3.23;2.00;;;;;;;;;;5012499;28;20796;-77
2022/05/29 12:10:24;;;;;;;1.70;1.30;;;;;;;;;;5015602;28;20799;-78
2022/05/29 12:13:02;;;;;;;4.50;1.47;;;;;;;;;;5017506;28;20497;-78
2022/05/29 12:15:31;;;;;;;2.40;1.50;;;;;;;;;;5010025;28;20424;-80
2022/05/29 12:18:01;;;;;;;4.90;1.60;;;;;;;;;;4990999;28;20788;-79
2022/05/29 12:20:35;;;;;;;1.83;1.30;;;;;;;;;;4991519;28;20426;-80
2022/05/29 12:23:05;;;;;;;1.40;1.30;;;;;;;;;;4992174;28;20907;-81
2022/05/29 12:25:36;;;;;;;2.13;1.40;;;;;;;;;;4991233;28;20496;-81
2022/05/29 12:28:07;;;;;;;1.83;1.73;;;;;;;;;;5012552;28;20554;-82
2022/05/29 12:30:37;;;;;;;1.60;1.30;;;;;;;;;;5012607;28;21104;-80
2022/05/29 12:33:11;;;;;;;1.73;1.37;;;;;;;;;;5015542;28;21910;-80
2022/05/29 12:35:41;;;;;;;2.50;1.87;;;;;;;;;;5016287;28;20923;-78
2022/05/29 12:38:17;;;;;;;3.30;1.90;;;;;;;;;;4993955;28;20431;-78
2022/05/29 12:40:54;;;;;;;2.93;2.57;;;;;;;;;;5010171;28;20434;-80
2022/05/29 12:43:36;;;;;;;2.57;2.13;;;;;;;;;;5010765;28;20442;-80
2022/05/29 12:46:11;;;;;;;2.90;2.70;;;;;;;;;;5010609;28;20972;-77
2022/05/29 12:48:58;;;;;;;5.07;3.60;;;;;;;;;;5010234;28;20486;-77
2022/05/29 12:51:32;;;;;;;4.43;3.30;;;;;;;;;;5012106;28;20447;-80
2022/05/29 12:54:15;;;;;;;6.20;4.20;;;;;;;;;;5012674;28;20516;-78
2022/05/29 12:56:51;;;;;;;5.20;4.70;;;;;;;;;;5015383;28;20472;-82
2022/05/29 12:59:27;;;;;;;9.17;4.50;;;;;;;;;;5015592;28;20445;-78
2022/05/29 13:02:02;;;;;;;5.50;4.70;;;;;;;;;;5010181;28;20439;-79
2022/05/29 13:04:47;;;;;;;8.33;5.50;;;;;;;;;;5010256;28;20454;-79
2022/05/29 13:07:22;;;;;;;12.17;5.53;;;;;;;;;;5010301;28;20538;-79
2022/05/29 13:09:57;;;;;;;5.17;4.57;;;;;;;;;;4993252;28;20505;-80
2022/05/29 13:12:26;;;;;;;7.63;4.83;;;;;;;;;;5010836;28;20439;-78
2022/05/29 13:14:56;;;;;;;8.13;5.20;;;;;;;;;;5012183;28;20449;-80
2022/05/29 13:17:26;;;;;;;5.93;4.63;;;;;;;;;;5012055;28;20639;-79
2022/05/29 13:19:55;;;;;;;6.50;4.17;;;;;;;;;;4998546;28;20438;-78
2022/05/29 13:22:22;;;;;;;5.17;4.77;;;;;;;;;;5012703;28;20810;-78
2022/05/29 13:25:05;;;;;;;5.50;4.40;;;;;;;;;;5009609;28;20529;-81
2022/05/29 13:27:33;;;;;;;5.70;4.00;;;;;;;;;;5009807;28;20466;-78
2022/05/29 13:30:02;;;;;;;5.00;4.50;;;;;;;;;;4992747;28;20940;-79
2022/05/29 13:32:31;;;;;;;4.87;4.00;;;;;;;;;;4992861;28;20451;-80
2022/05/29 13:35:15;;;;;;;5.40;4.57;;;;;;;;;;5010433;28;20950;-79
2022/05/29 13:37:45;;;;;;;5.07;4.57;;;;;;;;;;5011206;28;20890;-79
2022/05/29 13:40:33;;;;;;;4.90;4.40;;;;;;;;;;5013588;28;20437;-80
2022/05/29 13:43:16;;;;;;;8.60;4.73;;;;;;;;;;5001864;28;20463;-79
2022/05/29 13:45:56;;;;;;;6.60;4.33;;;;;;;;;;5008275;28;20893;-79
2022/05/29 13:48:25;;;;;;;10.53;4.60;;;;;;;;;;5009395;28;20446;-78
2022/05/29 13:50:54;;;;;;;6.57;4.83;;;;;;;;;;5009714;28;20931;-78
2022/05/29 13:53:25;;;;;;;7.37;4.57;;;;;;;;;;5010198;28;20798;-77
2022/05/29 13:55:57;;;;;;;5.00;3.97;;;;;;;;;;4991994;28;20449;-79
2022/05/29 14:06:32;;;;;;;3.20;2.40;;;;;;;;;;5000030;28;20488;-78
2022/05/29 14:09:00;;;;;;;5.00;3.50;;;;;;;;;;5009190;28;20454;-78
2022/05/29 14:11:42;;;;;;;3.53;2.37;;;;;;;;;;5009205;28;20446;-77
2022/05/29 14:14:24;;;;;;;4.20;2.67;;;;;;;;;;5008973;28;20953;-77
2022/05/29 14:16:55;;;;;;;4.63;2.40;;;;;;;;;;4993891;28;20813;-77
2022/05/29 14:19:37;;;;;;;3.67;2.37;;;;;;;;;;5009420;28;20465;-77
2022/05/29 14:22:11;;;;;;;3.77;2.47;;;;;;;;;;4999900;28;20806;-78
2022/05/29 14:24:53;;;;;;;4.10;2.50;;;;;;;;;;5013793;28;20495;-76
2022/05/29 14:27:26;;;;;;;3.20;1.60;;;;;;;;;;4993611;28;20500;-77
2022/05/29 14:30:06;;;;;;;2.80;1.80;;;;;;;;;;5009395;28;21241;-77
2022/05/29 14:32:45;;;;;;;2.70;1.57;;;;;;;;;;5009337;28;20493;-78
2022/05/29 14:35:17;;;;;;;1.37;1.27;;;;;;;;;;5009608;28;20556;-79
2022/05/29 14:37:54;;;;;;;2.07;1.30;;;;;;;;;;5010050;28;20466;-75
2022/05/29 14:40:26;;;;;;;1.70;1.30;;;;;;;;;;5011101;28;20803;-76
2022/05/29 14:42:54;;;;;;;1.60;1.10;;;;;;;;;;5012769;28;20426;-77
2022/05/29 14:45:23;;;;;;;2.87;1.63;;;;;;;;;;5015303;28;20439;-76
2022/05/29 14:47:55;;;;;;;3.00;1.40;;;;;;;;;;5011378;28;20466;-78
2022/05/29 14:50:25;;;;;;;1.50;1.20;;;;;;;;;;5008819;28;20443;-76
2022/05/29 14:52:55;;;;;;;2.07;1.57;;;;;;;;;;4991353;28;20955;-77
2022/05/29 14:55:26;;;;;;;1.70;1.43;;;;;;;;;;4991953;28;20447;-76
2022/05/29 14:57:55;;;;;;;2.60;1.60;;;;;;;;;;5009193;28;20521;-76
2022/05/29 15:00:27;;;;;;;1.90;1.60;;;;;;;;;;5009820;28;20459;-81
2022/05/29 15:02:56;;;;;;;2.87;1.73;;;;;;;;;;4993611;28;20864;-79
2022/05/29 15:05:24;;;;;;;4.90;3.07;;;;;;;;;;5012459;28;20443;-78
2022/05/29 15:10:34;;;;;;;8.13;4.03;;;;;;;;;;5012421;28;20434;-79
2022/05/29 15:13:06;;;;;;;5.33;4.40;;;;;;;;;;4994910;28;20474;-76
2022/05/29 15:15:37;;;;;;;5.77;4.63;;;;;;;;;;4995121;28;20446;-76
2022/05/29 15:18:11;;;;;;;5.50;5.00;;;;;;;;;;4995499;28;20447;-79
2022/05/29 15:26:16;;;;;;;9.43;6.63;;;;;;;;;;4993111;28;20483;-77
2022/05/29 15:28:44;;;;;;;9.13;6.63;;;;;;;;;;4988738;28;20454;-77
2022/05/29 15:31:13;;;;;;;9.30;6.40;;;;;;;;;;4997990;28;20435;-75
2022/05/29 15:33:48;;;;;;;7.43;6.03;;;;;;;;;;5012459;28;20442;-78
2022/05/29 15:36:21;;;;;;;8.80;5.60;;;;;;;;;;5031348;28;20462;-75
2022/05/29 15:38:53;;;;;;;6.23;5.63;;;;;;;;;;5031948;28;20442;-74
2022/05/29 15:41:23;;;;;;;8.00;5.77;;;;;;;;;;5032212;28;20434;-77
2022/05/29 15:43:56;;;;;;;7.60;6.20;;;;;;;;;;5028073;28;20963;-77
2022/05/29 15:46:35;;;;;;;7.40;6.00;;;;;;;;;;5012089;28;20499;-77
2022/05/29 15:49:12;;;;;;;6.73;6.03;;;;;;;;;;5013844;28;20939;-78
2022/05/29 15:51:48;;;;;;;8.17;5.53;;;;;;;;;;5017382;28;20443;-78
2022/05/29 15:54:24;;;;;;;6.77;6.17;;;;;;;;;;5019231;28;20499;-77